sensor_id;sensor_type;location;lat;lon;timestamp;pressure;altitude;pressure_sealevel;temperature;humidity
16120;BME280;12670;53.502;10.252;2022-10-15T00:00:25;100273.47;;;15.84;100.00
16120;BME280;12670;53.502;10.252;2022-10-15T00:03:28;100281.72;;;15.68;100.00
16120;BME280;12670;53.502;10.252;2022-10-15T00:06:30;100268.66;;;15.89;100.00
16120;BME280;12670;53.502;10.252;2022-10-15T00:09:33;100267.38;;;15.69;100.00
16120;BME280;12670;53.502;10.252;2022-10-15T00:12:37;100271.53;;;15.73;100.00
16120;BME280;12670;53.502;10.252;2022-10-15T00:15:40;100273.16;;;15.63;100.00
16120;BME280;12670;53.502;10.252;2022-10-15T00:18:44;100268.00;;;15.60;100.00
16120;BME280;12670;53.502;10.252;2022-10-15T00:21:47;100263.69;;;15.58;100.00
16120;BME280;12670;53.502;10.252;2022-10-15T00:24:49;100262.56;;;15.75;100.00
16120;BME280;12670;53.502;10.252;2022-10-15T00:27:53;100270.03;;;15.69;100.00
16120;BME280;12670;53.502;10.252;2022-10-15T00:31:03;100263.53;;;15.73;100.00
16120;BME280;12670;53.502;10.252;2022-10-15T00:34:06;100273.00;;;15.52;100.00
16120;BME280;12670;53.502;10.252;2022-10-15T00:37:09;100259.84;;;15.62;100.00
16120;BME280;12670;53.502;10.252;2022-10-15T00:40:11;100262.03;;;15.69;100.00
16120;BME280;12670;53.502;10.252;2022-10-15T00:46:37;100264.94;;;15.66;100.00
16120;BME280;12670;53.502;10.252;2022-10-15T00:49:43;100271.00;;;15.43;100.00
16120;BME280;12670;53.502;10.252;2022-10-15T00:52:56;100266.19;;;15.48;100.00
16120;BME280;12670;53.502;10.252;2022-10-15T00:56:01;100265.84;;;15.40;100.00
16120;BME280;12670;53.502;10.252;2022-10-15T00:59:06;100258.47;;;15.56;100.00
16120;BME280;12670;53.502;10.252;2022-10-15T01:02:09;100259.00;;;15.61;100.00
16120;BME280;12670;53.502;10.252;2022-10-15T01:05:14;100258.81;;;15.64;100.00
16120;BME280;12670;53.502;10.252;2022-10-15T01:08:17;100254.19;;;15.41;100.00
16120;BME280;12670;53.502;10.252;2022-10-15T01:11:29;100247.84;;;15.04;100.00
16120;BME280;12670;53.502;10.252;2022-10-15T01:14:43;100250.63;;;14.89;100.00
16120;BME280;12670;53.502;10.252;2022-10-15T01:17:54;100247.53;;;15.08;100.00
16120;BME280;12670;53.502;10.252;2022-10-15T01:21:05;100247.25;;;15.13;100.00
16120;BME280;12670;53.502;10.252;2022-10-15T01:24:28;100246.47;;;15.24;100.00
16120;BME280;12670;53.502;10.252;2022-10-15T01:27:41;100244.25;;;15.43;100.00
16120;BME280;12670;53.502;10.252;2022-10-15T01:30:47;100247.66;;;15.45;100.00
16120;BME280;12670;53.502;10.252;2022-10-15T01:33:57;100247.78;;;15.31;100.00
16120;BME280;12670;53.502;10.252;2022-10-15T01:37:07;100237.94;;;15.31;100.00
16120;BME280;12670;53.502;10.252;2022-10-15T01:40:14;100244.16;;;15.19;100.00
16120;BME280;12670;53.502;10.252;2022-10-15T01:43:21;100240.50;;;15.07;100.00
16120;BME280;12670;53.502;10.252;2022-10-15T01:46:33;100247.25;;;15.13;100.00
16120;BME280;12670;53.502;10.252;2022-10-15T01:49:41;100239.53;;;15.34;100.00
16120;BME280;12670;53.502;10.252;2022-10-15T01:52:44;100243.41;;;15.42;100.00
16120;BME280;12670;53.502;10.252;2022-10-15T01:55:47;100239.53;;;15.46;100.00
16120;BME280;12670;53.502;10.252;2022-10-15T01:58:52;100236.63;;;15.11;100.00
16120;BME280;12670;53.502;10.252;2022-10-15T02:01:57;100235.69;;;15.38;100.00
16120;BME280;12670;53.502;10.252;2022-10-15T02:05:00;100236.78;;;15.48;100.00
16120;BME280;12670;53.502;10.252;2022-10-15T02:08:09;100245.31;;;15.53;100.00
16120;BME280;12670;53.502;10.252;2022-10-15T02:11:15;100242.56;;;15.42;100.00
16120;BME280;12670;53.502;10.252;2022-10-15T02:14:26;100239.03;;;15.54;100.00
16120;BME280;12670;53.502;10.252;2022-10-15T02:17:36;100239.34;;;15.62;100.00
16120;BME280;12670;53.502;10.252;2022-10-15T02:20:44;100238.38;;;15.38;100.00
16120;BME280;12670;53.502;10.252;2022-10-15T02:23:51;100245.75;;;15.34;100.00
16120;BME280;12670;53.502;10.252;2022-10-15T02:26:56;100240.19;;;15.37;100.00
16120;BME280;12670;53.502;10.252;2022-10-15T02:30:02;100239.78;;;15.31;100.00
16120;BME280;12670;53.502;10.252;2022-10-15T02:33:06;100235.47;;;15.41;100.00
16120;BME280;12670;53.502;10.252;2022-10-15T02:36:10;100225.19;;;15.47;100.00
16120;BME280;12670;53.502;10.252;2022-10-15T02:39:15;100226.38;;;15.05;100.00
16120;BME280;12670;53.502;10.252;2022-10-15T02:42:19;100219.63;;;15.12;100.00
16120;BME280;12670;53.502;10.252;2022-10-15T02:45:22;100225.41;;;15.06;100.00
16120;BME280;12670;53.502;10.252;2022-10-15T02:48:26;100217.44;;;15.19;100.00
16120;BME280;12670;53.502;10.252;2022-10-15T02:51:30;100227.13;;;15.07;100.00
16120;BME280;12670;53.502;10.252;2022-10-15T02:54:33;100232.91;;;15.01;100.00
16120;BME280;12670;53.502;10.252;2022-10-15T02:57:36;100234.38;;;15.05;100.00
16120;BME280;12670;53.502;10.252;2022-10-15T03:00:38;100235.47;;;15.03;100.00
16120;BME280;12670;53.502;10.252;2022-10-15T03:03:42;100230.31;;;15.00;100.00
16120;BME280;12670;53.502;10.252;2022-10-15T03:06:45;100236.50;;;15.00;100.00
16120;BME280;12670;53.502;10.252;2022-10-15T03:09:47;100239.66;;;15.07;100.00
16120;BME280;12670;53.502;10.252;2022-10-15T03:12:50;100246.88;;;15.05;100.00
16120;BME280;12670;53.502;10.252;2022-10-15T03:15:52;100237.28;;;15.02;100.00
16120;BME280;12670;53.502;10.252;2022-10-15T03:18:56;100249.34;;;14.95;100.00
16120;BME280;12670;53.502;10.252;2022-10-15T03:21:59;100237.59;;;14.98;100.00
16120;BME280;12670;53.502;10.252;2022-10-15T03:25:01;100235.44;;;14.90;100.00
16120;BME280;12670;53.502;10.252;2022-10-15T03:28:04;100235.28;;;14.66;100.00
16120;BME280;12670;53.502;10.252;2022-10-15T03:31:06;100242.13;;;14.83;100.00
16120;BME280;12670;53.502;10.252;2022-10-15T03:34:10;100246.13;;;14.90;100.00
16120;BME280;12670;53.502;10.252;2022-10-15T03:37:13;100240.53;;;14.80;100.00
16120;BME280;12670;53.502;10.252;2022-10-15T03:40:16;100245.34;;;14.88;100.00
16120;BME280;12670;53.502;10.252;2022-10-15T03:43:18;100252.41;;;14.89;100.00
16120;BME280;12670;53.502;10.252;2022-10-15T03:46:20;100249.81;;;14.75;100.00
16120;BME280;12670;53.502;10.252;2022-10-15T03:49:24;100241.94;;;14.86;100.00
16120;BME280;12670;53.502;10.252;2022-10-15T03:52:27;100243.63;;;14.47;100.00
16120;BME280;12670;53.502;10.252;2022-10-15T03:55:30;100245.00;;;14.67;100.00
16120;BME280;12670;53.502;10.252;2022-10-15T03:58:32;100252.31;;;14.51;100.00
16120;BME280;12670;53.502;10.252;2022-10-15T04:01:35;100247.53;;;14.56;100.00
16120;BME280;12670;53.502;10.252;2022-10-15T04:04:39;100246.44;;;14.58;100.00
16120;BME280;12670;53.502;10.252;2022-10-15T04:07:41;100250.09;;;14.57;100.00
16120;BME280;12670;53.502;10.252;2022-10-15T04:10:44;100252.56;;;14.46;100.00
16120;BME280;12670;53.502;10.252;2022-10-15T04:13:47;100251.03;;;14.42;100.00
16120;BME280;12670;53.502;10.252;2022-10-15T04:16:51;100250.13;;;14.43;100.00
16120;BME280;12670;53.502;10.252;2022-10-15T04:19:55;100261.72;;;14.42;100.00
16120;BME280;12670;53.502;10.252;2022-10-15T04:22:57;100256.72;;;14.37;100.00
16120;BME280;12670;53.502;10.252;2022-10-15T04:26:00;100246.44;;;14.31;100.00
16120;BME280;12670;53.502;10.252;2022-10-15T04:29:03;100250.13;;;14.29;100.00
16120;BME280;12670;53.502;10.252;2022-10-15T04:32:05;100254.16;;;14.22;100.00
16120;BME280;12670;53.502;10.252;2022-10-15T04:35:09;100251.91;;;14.16;100.00
16120;BME280;12670;53.502;10.252;2022-10-15T04:38:12;100252.47;;;14.21;100.00
16120;BME280;12670;53.502;10.252;2022-10-15T04:41:14;100261.59;;;14.17;100.00
16120;BME280;12670;53.502;10.252;2022-10-15T04:44:17;100257.41;;;14.12;100.00
16120;BME280;12670;53.502;10.252;2022-10-15T04:47:19;100262.00;;;14.25;100.00
16120;BME280;12670;53.502;10.252;2022-10-15T04:50:24;100263.59;;;14.27;100.00
16120;BME280;12670;53.502;10.252;2022-10-15T04:53:26;100265.50;;;14.25;100.00
16120;BME280;12670;53.502;10.252;2022-10-15T04:56:29;100274.78;;;14.05;100.00
16120;BME280;12670;53.502;10.252;2022-10-15T04:59:31;100264.44;;;14.28;100.00
16120;BME280;12670;53.502;10.252;2022-10-15T05:02:34;100262.28;;;14.20;100.00
16120;BME280;12670;53.502;10.252;2022-10-15T05:05:41;100272.56;;;14.26;100.00
16120;BME280;12670;53.502;10.252;2022-10-15T05:08:44;100276.19;;;14.25;100.00
16120;BME280;12670;53.502;10.252;2022-10-15T05:11:47;100272.78;;;14.36;100.00
16120;BME280;12670;53.502;10.252;2022-10-15T05:14:50;100277.94;;;14.39;100.00
16120;BME280;12670;53.502;10.252;2022-10-15T05:17:52;100276.25;;;14.38;100.00
16120;BME280;12670;53.502;10.252;2022-10-15T05:20:59;100282.16;;;14.29;100.00
16120;BME280;12670;53.502;10.252;2022-10-15T05:24:03;100283.06;;;14.42;100.00
16120;BME280;12670;53.502;10.252;2022-10-15T05:27:05;100288.56;;;14.26;100.00
16120;BME280;12670;53.502;10.252;2022-10-15T05:30:09;100287.97;;;14.35;100.00
16120;BME280;12670;53.502;10.252;2022-10-15T05:33:11;100294.16;;;14.36;100.00
16120;BME280;12670;53.502;10.252;2022-10-15T05:36:17;100292.66;;;14.32;100.00
16120;BME280;12670;53.502;10.252;2022-10-15T05:39:20;100299.25;;;14.26;100.00
16120;BME280;12670;53.502;10.252;2022-10-15T05:42:23;100306.97;;;14.31;100.00
16120;BME280;12670;53.502;10.252;2022-10-15T05:45:25;100298.66;;;14.21;100.00
16120;BME280;12670;53.502;10.252;2022-10-15T05:48:28;100304.34;;;14.29;100.00
16120;BME280;12670;53.502;10.252;2022-10-15T05:51:32;100299.47;;;14.36;100.00
16120;BME280;12670;53.502;10.252;2022-10-15T05:54:34;100307.59;;;14.34;100.00
16120;BME280;12670;53.502;10.252;2022-10-15T05:57:37;100304.09;;;14.48;100.00
16120;BME280;12670;53.502;10.252;2022-10-15T06:00:39;100300.25;;;14.52;100.00
16120;BME280;12670;53.502;10.252;2022-10-15T06:03:42;100304.19;;;14.18;100.00
16120;BME280;12670;53.502;10.252;2022-10-15T06:06:46;100308.66;;;14.32;100.00
16120;BME280;12670;53.502;10.252;2022-10-15T06:09:48;100315.31;;;14.39;100.00
16120;BME280;12670;53.502;10.252;2022-10-15T06:12:52;100317.59;;;14.45;100.00
16120;BME280;12670;53.502;10.252;2022-10-15T06:15:54;100314.44;;;14.53;100.00
16120;BME280;12670;53.502;10.252;2022-10-15T06:18:56;100320.34;;;14.58;100.00
16120;BME280;12670;53.502;10.252;2022-10-15T06:22:00;100315.72;;;14.33;100.00
16120;BME280;12670;53.502;10.252;2022-10-15T06:25:03;100321.81;;;14.49;100.00
16120;BME280;12670;53.502;10.252;2022-10-15T06:28:06;100316.84;;;14.43;100.00
16120;BME280;12670;53.502;10.252;2022-10-15T06:31:09;100323.53;;;14.50;100.00
16120;BME280;12670;53.502;10.252;2022-10-15T06:34:12;100329.03;;;14.33;100.00
16120;BME280;12670;53.502;10.252;2022-10-15T06:37:16;100330.06;;;14.45;100.00
16120;BME280;12670;53.502;10.252;2022-10-15T06:40:18;100324.28;;;14.38;100.00
16120;BME280;12670;53.502;10.252;2022-10-15T06:43:21;100339.31;;;14.53;100.00
16120;BME280;12670;53.502;10.252;2022-10-15T06:46:23;100342.78;;;14.12;100.00
16120;BME280;12670;53.502;10.252;2022-10-15T06:49:26;100338.41;;;14.26;100.00
16120;BME280;12670;53.502;10.252;2022-10-15T06:52:30;100343.06;;;14.22;100.00
16120;BME280;12670;53.502;10.252;2022-10-15T06:55:33;100346.34;;;14.13;100.00
16120;BME280;12670;53.502;10.252;2022-10-15T06:58:36;100342.84;;;14.39;100.00
16120;BME280;12670;53.502;10.252;2022-10-15T07:01:39;100340.41;;;14.36;100.00
16120;BME280;12670;53.502;10.252;2022-10-15T07:04:42;100347.88;;;14.58;100.00
16120;BME280;12670;53.502;10.252;2022-10-15T07:07:51;100344.25;;;14.59;100.00
16120;BME280;12670;53.502;10.252;2022-10-15T07:10:53;100351.34;;;14.60;100.00
16120;BME280;12670;53.502;10.252;2022-10-15T07:13:56;100351.53;;;14.57;100.00
16120;BME280;12670;53.502;10.252;2022-10-15T07:16:58;100363.34;;;14.68;100.00
16120;BME280;12670;53.502;10.252;2022-10-15T07:20:01;100355.66;;;14.76;100.00
16120;BME280;12670;53.502;10.252;2022-10-15T07:23:05;100361.00;;;14.76;100.00
16120;BME280;12670;53.502;10.252;2022-10-15T07:26:07;100363.84;;;14.87;100.00
16120;BME280;12670;53.502;10.252;2022-10-15T07:29:10;100353.84;;;14.76;100.00
16120;BME280;12670;53.502;10.252;2022-10-15T07:32:12;100362.88;;;14.47;100.00
16120;BME280;12670;53.502;10.252;2022-10-15T07:35:15;100363.13;;;14.42;100.00
16120;BME280;12670;53.502;10.252;2022-10-15T07:38:19;100352.78;;;14.52;100.00
16120;BME280;12670;53.502;10.252;2022-10-15T07:41:21;100361.06;;;14.47;100.00
16120;BME280;12670;53.502;10.252;2022-10-15T07:44:24;100367.47;;;14.86;100.00
16120;BME280;12670;53.502;10.252;2022-10-15T07:47:26;100357.81;;;14.42;100.00
16120;BME280;12670;53.502;10.252;2022-10-15T07:50:29;100363.13;;;14.42;100.00
16120;BME280;12670;53.502;10.252;2022-10-15T07:53:37;100367.81;;;14.67;100.00
16120;BME280;12670;53.502;10.252;2022-10-15T07:56:40;100365.50;;;14.75;100.00
16120;BME280;12670;53.502;10.252;2022-10-15T07:59:42;100366.97;;;14.66;100.00
16120;BME280;12670;53.502;10.252;2022-10-15T08:02:45;100371.09;;;14.85;100.00
16120;BME280;12670;53.502;10.252;2022-10-15T08:05:47;100367.19;;;14.49;100.00
16120;BME280;12670;53.502;10.252;2022-10-15T08:08:54;100369.63;;;14.66;100.00
16120;BME280;12670;53.502;10.252;2022-10-15T08:11:57;100370.41;;;14.11;100.00
16120;BME280;12670;53.502;10.252;2022-10-15T08:14:59;100367.75;;;14.54;100.00
16120;BME280;12670;53.502;10.252;2022-10-15T08:18:02;100374.41;;;14.61;100.00
16120;BME280;12670;53.502;10.252;2022-10-15T08:21:05;100370.50;;;14.38;100.00
16120;BME280;12670;53.502;10.252;2022-10-15T08:24:09;100369.06;;;14.61;100.00
16120;BME280;12670;53.502;10.252;2022-10-15T08:27:12;100370.66;;;14.78;100.00
16120;BME280;12670;53.502;10.252;2022-10-15T08:30:14;100382.78;;;14.12;100.00
16120;BME280;12670;53.502;10.252;2022-10-15T08:33:17;100381.84;;;14.28;100.00
16120;BME280;12670;53.502;10.252;2022-10-15T08:36:19;100375.44;;;14.59;100.00
16120;BME280;12670;53.502;10.252;2022-10-15T08:39:24;100382.41;;;14.88;100.00
16120;BME280;12670;53.502;10.252;2022-10-15T08:42:30;100389.09;;;14.96;100.00
16120;BME280;12670;53.502;10.252;2022-10-15T08:45:37;100387.63;;;15.31;100.00
16120;BME280;12670;53.502;10.252;2022-10-15T08:48:47;100383.31;;;15.29;100.00
16120;BME280;12670;53.502;10.252;2022-10-15T08:51:54;100386.84;;;15.29;100.00
16120;BME280;12670;53.502;10.252;2022-10-15T08:55:00;100383.47;;;15.40;100.00
16120;BME280;12670;53.502;10.252;2022-10-15T08:58:11;100384.78;;;15.60;100.00
16120;BME280;12670;53.502;10.252;2022-10-15T09:01:20;100376.50;;;15.90;100.00
16120;BME280;12670;53.502;10.252;2022-10-15T09:04:29;100382.25;;;16.09;100.00
16120;BME280;12670;53.502;10.252;2022-10-15T09:07:35;100391.19;;;16.46;100.00
16120;BME280;12670;53.502;10.252;2022-10-15T09:10:47;100384.06;;;16.34;99.92
16120;BME280;12670;53.502;10.252;2022-10-15T09:13:51;100381.50;;;16.69;100.00
16120;BME280;12670;53.502;10.252;2022-10-15T09:16:54;100385.16;;;16.81;99.33
16120;BME280;12670;53.502;10.252;2022-10-15T09:19:57;100389.84;;;17.14;99.26
16120;BME280;12670;53.502;10.252;2022-10-15T09:23:00;100386.25;;;17.26;97.89
16120;BME280;12670;53.502;10.252;2022-10-15T09:26:07;100374.34;;;17.07;93.90
16120;BME280;12670;53.502;10.252;2022-10-15T09:29:17;100378.22;;;17.02;92.57
16120;BME280;12670;53.502;10.252;2022-10-15T09:32:25;100380.34;;;16.73;94.78
16120;BME280;12670;53.502;10.252;2022-10-15T09:35:35;100381.34;;;16.72;94.73
16120;BME280;12670;53.502;10.252;2022-10-15T09:38:48;100378.25;;;17.38;95.28
16120;BME280;12670;53.502;10.252;2022-10-15T09:42:03;100380.03;;;17.61;93.00
16120;BME280;12670;53.502;10.252;2022-10-15T09:45:13;100376.94;;;17.78;90.54
16120;BME280;12670;53.502;10.252;2022-10-15T09:48:17;100377.91;;;17.42;89.46
16120;BME280;12670;53.502;10.252;2022-10-15T09:51:24;100364.50;;;18.45;86.40
16120;BME280;12670;53.502;10.252;2022-10-15T09:54:37;100372.22;;;19.04;83.76
16120;BME280;12670;53.502;10.252;2022-10-15T09:57:47;100370.16;;;19.28;82.73
16120;BME280;12670;53.502;10.252;2022-10-15T10:00:58;100374.88;;;18.16;84.70
16120;BME280;12670;53.502;10.252;2022-10-15T10:04:12;100373.34;;;19.01;82.44
16120;BME280;12670;53.502;10.252;2022-10-15T10:07:28;100379.84;;;19.52;80.81
16120;BME280;12670;53.502;10.252;2022-10-15T10:10:32;100382.69;;;19.50;78.79
16120;BME280;12670;53.502;10.252;2022-10-15T10:13:40;100375.00;;;18.59;83.17
16120;BME280;12670;53.502;10.252;2022-10-15T10:17:09;100380.59;;;18.89;83.23
16120;BME280;12670;53.502;10.252;2022-10-15T10:20:18;100371.47;;;19.87;78.39
16120;BME280;12670;53.502;10.252;2022-10-15T10:23:22;100379.22;;;19.80;79.20
16120;BME280;12670;53.502;10.252;2022-10-15T10:26:25;100376.00;;;19.86;77.84
16120;BME280;12670;53.502;10.252;2022-10-15T10:29:30;100377.00;;;20.16;76.29
16120;BME280;12670;53.502;10.252;2022-10-15T10:32:37;100356.31;;;20.87;72.26
16120;BME280;12670;53.502;10.252;2022-10-15T10:35:43;100357.81;;;21.96;69.44
16120;BME280;12670;53.502;10.252;2022-10-15T10:38:55;100353.53;;;22.96;63.34
16120;BME280;12670;53.502;10.252;2022-10-15T10:42:00;100360.00;;;23.56;58.56
16120;BME280;12670;53.502;10.252;2022-10-15T10:45:17;100360.50;;;23.34;61.39
16120;BME280;12670;53.502;10.252;2022-10-15T10:48:21;100354.16;;;22.34;60.98
16120;BME280;12670;53.502;10.252;2022-10-15T10:51:26;100351.88;;;23.56;56.74
16120;BME280;12670;53.502;10.252;2022-10-15T10:54:32;100354.09;;;22.44;61.21
16120;BME280;12670;53.502;10.252;2022-10-15T10:57:41;100356.59;;;20.94;67.94
16120;BME280;12670;53.502;10.252;2022-10-15T11:00:48;100371.44;;;19.77;73.78
16120;BME280;12670;53.502;10.252;2022-10-15T11:03:52;100358.78;;;19.57;76.57
16120;BME280;12670;53.502;10.252;2022-10-15T11:07:00;100352.56;;;19.98;77.48
16120;BME280;12670;53.502;10.252;2022-10-15T11:10:09;100352.06;;;19.62;75.12
16120;BME280;12670;53.502;10.252;2022-10-15T11:13:42;100347.75;;;19.71;77.41
16120;BME280;12670;53.502;10.252;2022-10-15T11:16:54;100342.41;;;21.60;67.92
16120;BME280;12670;53.502;10.252;2022-10-15T11:20:02;100355.19;;;22.51;65.41
16120;BME280;12670;53.502;10.252;2022-10-15T11:23:40;100344.06;;;22.82;60.53
16120;BME280;12670;53.502;10.252;2022-10-15T11:26:54;100342.59;;;21.29;67.45
16120;BME280;12670;53.502;10.252;2022-10-15T11:30:25;100334.69;;;20.58;71.82
16120;BME280;12670;53.502;10.252;2022-10-15T11:33:43;100342.06;;;20.26;74.88
16120;BME280;12670;53.502;10.252;2022-10-15T11:37:02;100339.53;;;20.03;78.04
16120;BME280;12670;53.502;10.252;2022-10-15T11:40:19;100324.22;;;22.08;70.27
16120;BME280;12670;53.502;10.252;2022-10-15T11:43:35;100332.34;;;23.09;61.10
16120;BME280;12670;53.502;10.252;2022-10-15T11:46:48;100329.47;;;22.20;59.22
16120;BME280;12670;53.502;10.252;2022-10-15T11:50:07;100327.47;;;23.48;55.46
16120;BME280;12670;53.502;10.252;2022-10-15T11:53:37;100312.75;;;24.29;54.29
16120;BME280;12670;53.502;10.252;2022-10-15T11:56:48;100320.75;;;24.97;51.49
16120;BME280;12670;53.502;10.252;2022-10-15T11:59:54;100337.50;;;24.00;53.21
16120;BME280;12670;53.502;10.252;2022-10-15T12:03:04;100330.25;;;23.21;58.07
16120;BME280;12670;53.502;10.252;2022-10-15T12:06:12;100333.59;;;23.14;56.38
16120;BME280;12670;53.502;10.252;2022-10-15T12:09:22;100317.25;;;22.43;57.60
16120;BME280;12670;53.502;10.252;2022-10-15T12:12:36;100324.19;;;21.71;65.13
16120;BME280;12670;53.502;10.252;2022-10-15T12:15:47;100315.53;;;20.81;61.21
16120;BME280;12670;53.502;10.252;2022-10-15T12:18:58;100300.81;;;20.85;62.09
16120;BME280;12670;53.502;10.252;2022-10-15T12:22:06;100306.97;;;21.82;60.77
16120;BME280;12670;53.502;10.252;2022-10-15T12:25:39;100297.38;;;22.80;55.16
16120;BME280;12670;53.502;10.252;2022-10-15T12:28:47;100301.59;;;23.28;55.31
16120;BME280;12670;53.502;10.252;2022-10-15T12:31:52;100291.81;;;23.79;52.45
16120;BME280;12670;53.502;10.252;2022-10-15T12:34:58;100284.78;;;23.94;54.20
16120;BME280;12670;53.502;10.252;2022-10-15T12:38:19;100281.06;;;23.43;52.59
16120;BME280;12670;53.502;10.252;2022-10-15T12:41:33;100274.75;;;24.20;51.29
16120;BME280;12670;53.502;10.252;2022-10-15T12:44:37;100267.19;;;25.23;48.51
16120;BME280;12670;53.502;10.252;2022-10-15T12:47:47;100274.63;;;25.62;46.67
16120;BME280;12670;53.502;10.252;2022-10-15T12:54:41;100278.19;;;27.87;38.47
16120;BME280;12670;53.502;10.252;2022-10-15T12:57:57;100264.06;;;28.13;40.32
16120;BME280;12670;53.502;10.252;2022-10-15T13:01:03;100271.22;;;29.23;39.48
16120;BME280;12670;53.502;10.252;2022-10-15T13:04:08;100271.78;;;28.24;38.73
16120;BME280;12670;53.502;10.252;2022-10-15T13:07:13;100284.13;;;26.92;41.33
16120;BME280;12670;53.502;10.252;2022-10-15T13:10:21;100277.50;;;25.69;45.07
16120;BME280;12670;53.502;10.252;2022-10-15T13:13:27;100286.72;;;23.76;47.81
16120;BME280;12670;53.502;10.252;2022-10-15T13:16:30;100277.75;;;22.78;51.31
16120;BME280;12670;53.502;10.252;2022-10-15T13:19:37;100284.31;;;22.57;51.95
16120;BME280;12670;53.502;10.252;2022-10-15T13:22:40;100285.13;;;22.13;56.04
16120;BME280;12670;53.502;10.252;2022-10-15T13:25:44;100280.94;;;21.81;58.88
16120;BME280;12670;53.502;10.252;2022-10-15T13:28:47;100279.91;;;21.64;60.45
16120;BME280;12670;53.502;10.252;2022-10-15T13:31:52;100274.56;;;20.96;61.28
16120;BME280;12670;53.502;10.252;2022-10-15T13:34:56;100266.81;;;20.43;62.03
16120;BME280;12670;53.502;10.252;2022-10-15T14:05:27;100231.06;;;18.88;76.04
16120;BME280;12670;53.502;10.252;2022-10-15T14:08:33;100221.84;;;19.33;77.93
16120;BME280;12670;53.502;10.252;2022-10-15T14:11:35;100217.25;;;19.44;74.30
16120;BME280;12670;53.502;10.252;2022-10-15T14:14:41;100220.22;;;19.41;72.90
16120;BME280;12670;53.502;10.252;2022-10-15T14:17:48;100231.34;;;19.58;74.85
16120;BME280;12670;53.502;10.252;2022-10-15T14:20:53;100221.34;;;19.60;73.89
16120;BME280;12670;53.502;10.252;2022-10-15T14:24:03;100217.81;;;19.69;74.09
16120;BME280;12670;53.502;10.252;2022-10-15T14:27:13;100213.13;;;19.61;73.80
16120;BME280;12670;53.502;10.252;2022-10-15T14:30:21;100213.28;;;19.69;75.89
16120;BME280;12670;53.502;10.252;2022-10-15T14:33:40;100225.53;;;19.32;71.54
16120;BME280;12670;53.502;10.252;2022-10-15T14:36:44;100222.69;;;19.24;73.09
16120;BME280;12670;53.502;10.252;2022-10-15T14:39:47;100224.63;;;19.01;75.14
16120;BME280;12670;53.502;10.252;2022-10-15T14:43:01;100222.47;;;18.95;75.52
16120;BME280;12670;53.502;10.252;2022-10-15T14:46:05;100216.50;;;19.12;77.51
16120;BME280;12670;53.502;10.252;2022-10-15T14:49:27;100217.16;;;19.04;78.21
16120;BME280;12670;53.502;10.252;2022-10-15T14:52:35;100215.75;;;18.68;77.32
16120;BME280;12670;53.502;10.252;2022-10-15T14:55:42;100209.81;;;18.85;80.02
16120;BME280;12670;53.502;10.252;2022-10-15T14:58:46;100216.78;;;18.88;82.40
16120;BME280;12670;53.502;10.252;2022-10-15T15:01:53;100216.94;;;18.75;81.25
16120;BME280;12670;53.502;10.252;2022-10-15T15:05:06;100224.19;;;18.52;81.94
16120;BME280;12670;53.502;10.252;2022-10-15T15:08:11;100215.78;;;18.46;79.77
16120;BME280;12670;53.502;10.252;2022-10-15T15:11:17;100211.97;;;18.71;83.16
16120;BME280;12670;53.502;10.252;2022-10-15T15:14:23;100206.78;;;18.79;84.27
16120;BME280;12670;53.502;10.252;2022-10-15T15:17:28;100204.25;;;18.66;83.01
16120;BME280;12670;53.502;10.252;2022-10-15T15:20:31;100211.66;;;18.53;82.44
16120;BME280;12670;53.502;10.252;2022-10-15T15:23:35;100207.78;;;18.34;81.67
16120;BME280;12670;53.502;10.252;2022-10-15T15:26:37;100202.53;;;18.33;84.71
16120;BME280;12670;53.502;10.252;2022-10-15T15:29:40;100201.31;;;18.37;85.10
16120;BME280;12670;53.502;10.252;2022-10-15T15:36:06;100204.88;;;18.26;88.32
16120;BME280;12670;53.502;10.252;2022-10-15T15:39:12;100204.13;;;18.35;93.22
16120;BME280;12670;53.502;10.252;2022-10-15T15:42:17;100212.69;;;18.29;98.09
16120;BME280;12670;53.502;10.252;2022-10-15T15:45:21;100214.88;;;18.35;98.29
16120;BME280;12670;53.502;10.252;2022-10-15T15:48:24;100224.88;;;18.33;99.57
16120;BME280;12670;53.502;10.252;2022-10-15T15:51:28;100213.22;;;18.12;100.00
16120;BME280;12670;53.502;10.252;2022-10-15T15:54:33;100206.66;;;17.71;100.00
16120;BME280;12670;53.502;10.252;2022-10-15T15:57:36;100213.59;;;17.96;100.00
16120;BME280;12670;53.502;10.252;2022-10-15T16:00:39;100211.03;;;18.06;100.00
16120;BME280;12670;53.502;10.252;2022-10-15T16:03:41;100208.38;;;17.83;100.00
16120;BME280;12670;53.502;10.252;2022-10-15T16:06:44;100202.66;;;17.77;100.00
16120;BME280;12670;53.502;10.252;2022-10-15T16:09:50;100207.25;;;17.64;100.00
16120;BME280;12670;53.502;10.252;2022-10-15T16:12:52;100195.81;;;17.73;100.00
16120;BME280;12670;53.502;10.252;2022-10-15T16:15:56;100202.03;;;17.73;100.00
16120;BME280;12670;53.502;10.252;2022-10-15T16:18:59;100202.72;;;17.64;100.00
16120;BME280;12670;53.502;10.252;2022-10-15T16:22:01;100200.06;;;17.42;100.00
16120;BME280;12670;53.502;10.252;2022-10-15T16:25:07;100202.28;;;17.59;100.00
16120;BME280;12670;53.502;10.252;2022-10-15T16:28:09;100215.53;;;17.49;100.00